sensor_id;sensor_type;location;lat;lon;timestamp;pressure;altitude;pressure_sealevel;temperature;humidity
70338;BME280;57757;53.198;19.646;2023-05-12T00:00:59;100882.46;;;11.14;26.88
70338;BME280;57757;53.198;19.646;2023-05-12T00:03:27;100880.94;;;11.10;27.04
70338;BME280;57757;53.198;19.646;2023-05-12T00:05:55;100883.39;;;11.09;27.12
70338;BME280;57757;53.198;19.646;2023-05-12T00:08:22;100884.66;;;11.07;27.31
70338;BME280;57757;53.198;19.646;2023-05-12T00:10:50;100882.92;;;11.05;27.28
70338;BME280;57757;53.198;19.646;2023-05-12T00:13:18;100881.75;;;11.02;27.34
70338;BME280;57757;53.198;19.646;2023-05-12T00:15:50;100881.78;;;10.99;27.44
70338;BME280;57757;53.198;19.646;2023-05-12T00:18:18;100882.16;;;10.97;27.61
70338;BME280;57757;53.198;19.646;2023-05-12T00:20:46;100883.75;;;10.95;27.52
70338;BME280;57757;53.198;19.646;2023-05-12T00:23:14;100883.09;;;10.93;27.56
70338;BME280;57757;53.198;19.646;2023-05-12T00:25:42;100882.83;;;10.88;27.64
70338;BME280;57757;53.198;19.646;2023-05-12T00:28:09;100881.11;;;10.85;27.68
70338;BME280;57757;53.198;19.646;2023-05-12T00:30:37;100882.89;;;10.82;27.86
70338;BME280;57757;53.198;19.646;2023-05-12T00:33:05;100881.70;;;10.80;27.84
70338;BME280;57757;53.198;19.646;2023-05-12T00:35:32;100882.09;;;10.78;28.08
70338;BME280;57757;53.198;19.646;2023-05-12T00:38:00;100882.14;;;10.73;28.03
70338;BME280;57757;53.198;19.646;2023-05-12T00:40:27;100884.63;;;10.69;28.05
70338;BME280;57757;53.198;19.646;2023-05-12T00:42:55;100888.19;;;10.64;28.13
70338;BME280;57757;53.198;19.646;2023-05-12T00:45:22;100888.18;;;10.63;28.28
70338;BME280;57757;53.198;19.646;2023-05-12T00:47:50;100886.13;;;10.61;28.36
70338;BME280;57757;53.198;19.646;2023-05-12T00:50:20;100889.84;;;10.56;28.46
70338;BME280;57757;53.198;19.646;2023-05-12T00:52:49;100890.55;;;10.54;28.50
70338;BME280;57757;53.198;19.646;2023-05-12T00:55:17;100889.04;;;10.50;28.60
70338;BME280;57757;53.198;19.646;2023-05-12T00:57:45;100892.04;;;10.46;28.72
70338;BME280;57757;53.198;19.646;2023-05-12T01:00:13;100894.16;;;10.44;28.67
70338;BME280;57757;53.198;19.646;2023-05-12T01:02:41;100895.77;;;10.41;28.76
70338;BME280;57757;53.198;19.646;2023-05-12T01:05:09;100900.45;;;10.40;28.84
70338;BME280;57757;53.198;19.646;2023-05-12T01:07:38;100901.88;;;10.39;28.87
70338;BME280;57757;53.198;19.646;2023-05-12T01:10:18;100897.56;;;10.36;29.05
70338;BME280;57757;53.198;19.646;2023-05-12T01:12:47;100899.33;;;10.34;29.09
70338;BME280;57757;53.198;19.646;2023-05-12T01:15:17;100897.41;;;10.33;29.14
70338;BME280;57757;53.198;19.646;2023-05-12T01:17:54;100896.91;;;10.31;29.11
70338;BME280;57757;53.198;19.646;2023-05-12T01:20:25;100903.74;;;10.27;29.16
70338;BME280;57757;53.198;19.646;2023-05-12T01:22:55;100902.41;;;10.22;29.27
70338;BME280;57757;53.198;19.646;2023-05-12T01:25:26;100901.39;;;10.20;29.37
70338;BME280;57757;53.198;19.646;2023-05-12T01:27:57;100901.05;;;10.19;29.50
70338;BME280;57757;53.198;19.646;2023-05-12T01:30:26;100901.92;;;10.17;29.47
70338;BME280;57757;53.198;19.646;2023-05-12T01:32:55;100903.52;;;10.15;29.63
70338;BME280;57757;53.198;19.646;2023-05-12T01:35:23;100908.02;;;10.14;29.61
70338;BME280;57757;53.198;19.646;2023-05-12T01:37:50;100908.02;;;10.13;29.83
70338;BME280;57757;53.198;19.646;2023-05-12T01:40:18;100907.88;;;10.11;29.77
70338;BME280;57757;53.198;19.646;2023-05-12T01:42:47;100906.85;;;10.08;29.86
70338;BME280;57757;53.198;19.646;2023-05-12T01:45:15;100908.95;;;10.06;29.86
70338;BME280;57757;53.198;19.646;2023-05-12T01:47:42;100908.80;;;10.04;29.87
70338;BME280;57757;53.198;19.646;2023-05-12T01:50:10;100912.84;;;10.01;30.03
70338;BME280;57757;53.198;19.646;2023-05-12T01:52:38;100915.98;;;10.00;30.12
70338;BME280;57757;53.198;19.646;2023-05-12T01:55:06;100914.60;;;9.97;30.09
70338;BME280;57757;53.198;19.646;2023-05-12T01:57:36;100918.80;;;9.95;30.14
70338;BME280;57757;53.198;19.646;2023-05-12T02:00:03;100917.61;;;9.92;30.20
70338;BME280;57757;53.198;19.646;2023-05-12T02:02:31;100917.63;;;9.90;30.26
70338;BME280;57757;53.198;19.646;2023-05-12T02:05:00;100917.48;;;9.87;30.25
70338;BME280;57757;53.198;19.646;2023-05-12T02:07:28;100918.70;;;9.85;30.37
70338;BME280;57757;53.198;19.646;2023-05-12T02:09:56;100918.41;;;9.82;30.52
70338;BME280;57757;53.198;19.646;2023-05-12T02:12:23;100916.34;;;9.79;30.45
70338;BME280;57757;53.198;19.646;2023-05-12T02:14:51;100918.43;;;9.77;30.54
70338;BME280;57757;53.198;19.646;2023-05-12T02:17:19;100917.58;;;9.75;30.54
70338;BME280;57757;53.198;19.646;2023-05-12T02:19:47;100916.19;;;9.75;30.62
70338;BME280;57757;53.198;19.646;2023-05-12T02:22:14;100920.02;;;9.74;30.76
70338;BME280;57757;53.198;19.646;2023-05-12T02:24:42;100921.44;;;9.71;30.75
70338;BME280;57757;53.198;19.646;2023-05-12T02:27:09;100923.71;;;9.69;30.81
70338;BME280;57757;53.198;19.646;2023-05-12T02:29:37;100924.95;;;9.67;30.78
70338;BME280;57757;53.198;19.646;2023-05-12T02:32:05;100926.36;;;9.65;30.98
70338;BME280;57757;53.198;19.646;2023-05-12T02:34:33;100925.66;;;9.65;31.05
70338;BME280;57757;53.198;19.646;2023-05-12T02:37:00;100924.45;;;9.64;31.03
70338;BME280;57757;53.198;19.646;2023-05-12T02:39:37;100926.54;;;9.64;31.15
70338;BME280;57757;53.198;19.646;2023-05-12T02:42:05;100928.63;;;9.63;31.10
70338;BME280;57757;53.198;19.646;2023-05-12T02:44:33;100933.15;;;9.62;31.16
70338;BME280;57757;53.198;19.646;2023-05-12T02:47:01;100932.64;;;9.62;31.13
70338;BME280;57757;53.198;19.646;2023-05-12T02:49:28;100932.46;;;9.61;31.22
70338;BME280;57757;53.198;19.646;2023-05-12T02:51:56;100934.91;;;9.60;31.22
70338;BME280;57757;53.198;19.646;2023-05-12T02:54:24;100934.73;;;9.59;31.29
70338;BME280;57757;53.198;19.646;2023-05-12T02:56:51;100938.39;;;9.58;31.30
70338;BME280;57757;53.198;19.646;2023-05-12T02:59:19;100937.70;;;9.58;31.47
70338;BME280;57757;53.198;19.646;2023-05-12T03:01:47;100937.52;;;9.58;31.48
70338;BME280;57757;53.198;19.646;2023-05-12T03:04:15;100934.92;;;9.57;31.51
70338;BME280;57757;53.198;19.646;2023-05-12T03:06:43;100936.32;;;9.56;31.53
70338;BME280;57757;53.198;19.646;2023-05-12T03:09:11;100937.19;;;9.55;31.54
70338;BME280;57757;53.198;19.646;2023-05-12T03:11:38;100937.36;;;9.55;31.69
70338;BME280;57757;53.198;19.646;2023-05-12T03:14:06;100934.61;;;9.53;31.68
70338;BME280;57757;53.198;19.646;2023-05-12T03:16:33;100936.70;;;9.51;31.70
70338;BME280;57757;53.198;19.646;2023-05-12T03:19:01;100934.79;;;9.51;31.85
70338;BME280;57757;53.198;19.646;2023-05-12T03:21:29;100935.30;;;9.51;31.81
70338;BME280;57757;53.198;19.646;2023-05-12T03:23:56;100934.61;;;9.52;31.85
70338;BME280;57757;53.198;19.646;2023-05-12T03:26:24;100936.52;;;9.53;31.88
70338;BME280;57757;53.198;19.646;2023-05-12T03:28:52;100932.67;;;9.55;31.86
70338;BME280;57757;53.198;19.646;2023-05-12T03:31:19;100933.20;;;9.56;31.98
70338;BME280;57757;53.198;19.646;2023-05-12T03:33:47;100931.95;;;9.59;32.10
70338;BME280;57757;53.198;19.646;2023-05-12T03:36:15;100933.33;;;9.60;32.11
70338;BME280;57757;53.198;19.646;2023-05-12T03:38:42;100937.82;;;9.64;32.14
70338;BME280;57757;53.198;19.646;2023-05-12T03:41:10;100940.58;;;9.67;32.13
70338;BME280;57757;53.198;19.646;2023-05-12T03:43:38;100937.42;;;9.71;32.14
70338;BME280;57757;53.198;19.646;2023-05-12T03:46:06;100940.86;;;9.75;32.23
70338;BME280;57757;53.198;19.646;2023-05-12T03:48:34;100943.29;;;9.76;32.19
70338;BME280;57757;53.198;19.646;2023-05-12T03:51:02;100946.73;;;9.80;32.25
70338;BME280;57757;53.198;19.646;2023-05-12T03:53:30;100948.77;;;9.85;32.31
70338;BME280;57757;53.198;19.646;2023-05-12T03:56:03;100948.39;;;9.88;32.27
70338;BME280;57757;53.198;19.646;2023-05-12T03:58:31;100955.50;;;9.91;32.46
70338;BME280;57757;53.198;19.646;2023-05-12T04:00:59;100954.43;;;9.92;32.35
70338;BME280;57757;53.198;19.646;2023-05-12T04:03:28;100959.45;;;9.96;32.36
70338;BME280;57757;53.198;19.646;2023-05-12T04:06:00;100963.23;;;10.01;32.44
70338;BME280;57757;53.198;19.646;2023-05-12T04:08:29;100964.03;;;10.07;32.51
70338;BME280;57757;53.198;19.646;2023-05-12T04:10:58;100962.96;;;10.14;32.58
70338;BME280;57757;53.198;19.646;2023-05-12T04:13:28;100965.86;;;10.21;32.51
70338;BME280;57757;53.198;19.646;2023-05-12T04:15:59;100968.57;;;10.27;32.36
70338;BME280;57757;53.198;19.646;2023-05-12T04:18:27;100966.60;;;10.33;32.51
70338;BME280;57757;53.198;19.646;2023-05-12T04:20:55;100971.04;;;10.42;32.48
70338;BME280;57757;53.198;19.646;2023-05-12T04:23:23;100970.42;;;10.51;32.57
70338;BME280;57757;53.198;19.646;2023-05-12T04:25:50;100972.08;;;10.58;32.53
70338;BME280;57757;53.198;19.646;2023-05-12T04:28:18;100972.52;;;10.65;32.56
70338;BME280;57757;53.198;19.646;2023-05-12T04:30:46;100971.20;;;10.74;32.57
70338;BME280;57757;53.198;19.646;2023-05-12T04:33:13;100972.49;;;10.83;32.67
70338;BME280;57757;53.198;19.646;2023-05-12T04:35:41;100973.95;;;10.91;32.59
70338;BME280;57757;53.198;19.646;2023-05-12T04:38:09;100977.35;;;10.98;32.57
70338;BME280;57757;53.198;19.646;2023-05-12T04:40:36;100976.02;;;11.06;32.57
70338;BME280;57757;53.198;19.646;2023-05-12T04:43:04;100974.73;;;11.14;32.56
70338;BME280;57757;53.198;19.646;2023-05-12T04:45:31;100980.35;;;11.22;32.52
70338;BME280;57757;53.198;19.646;2023-05-12T04:47:59;100979.56;;;11.28;32.38
70338;BME280;57757;53.198;19.646;2023-05-12T04:50:26;100977.52;;;11.37;32.47
70338;BME280;57757;53.198;19.646;2023-05-12T04:52:54;100979.52;;;11.44;32.34
70338;BME280;57757;53.198;19.646;2023-05-12T04:55:22;100982.33;;;11.54;32.44
70338;BME280;57757;53.198;19.646;2023-05-12T04:57:49;100983.92;;;11.64;32.48
70338;BME280;57757;53.198;19.646;2023-05-12T05:00:17;100987.79;;;11.75;32.42
70338;BME280;57757;53.198;19.646;2023-05-12T05:02:45;100988.00;;;11.84;32.51
70338;BME280;57757;53.198;19.646;2023-05-12T05:05:13;100988.00;;;11.95;32.42
70338;BME280;57757;53.198;19.646;2023-05-12T05:07:42;100991.85;;;12.05;32.31
70338;BME280;57757;53.198;19.646;2023-05-12T05:10:10;100988.02;;;12.15;32.23
70338;BME280;57757;53.198;19.646;2023-05-12T05:12:38;100990.29;;;12.24;32.45
70338;BME280;57757;53.198;19.646;2023-05-12T05:15:06;100992.55;;;12.35;32.38
70338;BME280;57757;53.198;19.646;2023-05-12T05:17:37;100992.38;;;12.44;32.44
70338;BME280;57757;53.198;19.646;2023-05-12T05:20:06;100993.42;;;12.54;32.37
70338;BME280;57757;53.198;19.646;2023-05-12T05:22:39;100993.60;;;12.62;32.24
70338;BME280;57757;53.198;19.646;2023-05-12T05:25:07;100996.03;;;12.72;32.33
70338;BME280;57757;53.198;19.646;2023-05-12T05:27:35;100993.21;;;12.82;32.40
70338;BME280;57757;53.198;19.646;2023-05-12T05:30:11;100993.34;;;12.93;32.36
70338;BME280;57757;53.198;19.646;2023-05-12T05:32:39;100995.02;;;13.05;32.46
70338;BME280;57757;53.198;19.646;2023-05-12T05:35:08;100992.02;;;13.17;32.33
70338;BME280;57757;53.198;19.646;2023-05-12T05:37:36;100998.59;;;13.28;32.23
70338;BME280;57757;53.198;19.646;2023-05-12T05:40:07;100990.13;;;13.39;32.16
70338;BME280;57757;53.198;19.646;2023-05-12T05:42:43;100989.23;;;13.48;32.17
70338;BME280;57757;53.198;19.646;2023-05-12T05:45:10;100988.96;;;13.59;32.25
70338;BME280;57757;53.198;19.646;2023-05-12T05:47:41;100992.67;;;13.72;32.16
70338;BME280;57757;53.198;19.646;2023-05-12T05:50:09;100990.83;;;13.84;32.16
70338;BME280;57757;53.198;19.646;2023-05-12T05:52:39;100993.48;;;13.97;32.19
70338;BME280;57757;53.198;19.646;2023-05-12T05:55:10;100994.05;;;14.09;31.91
70338;BME280;57757;53.198;19.646;2023-05-12T05:57:39;100994.96;;;14.21;32.14
70338;BME280;57757;53.198;19.646;2023-05-12T06:00:07;100997.45;;;14.34;31.98
70338;BME280;57757;53.198;19.646;2023-05-12T06:02:36;100997.11;;;14.48;31.98
70338;BME280;57757;53.198;19.646;2023-05-12T06:05:04;100997.77;;;14.62;31.95
70338;BME280;57757;53.198;19.646;2023-05-12T06:07:33;100998.78;;;14.76;31.94
70338;BME280;57757;53.198;19.646;2023-05-12T06:10:01;100996.20;;;14.94;32.21
70338;BME280;57757;53.198;19.646;2023-05-12T06:12:28;100997.02;;;15.13;31.91
70338;BME280;57757;53.198;19.646;2023-05-12T06:14:56;100997.52;;;15.32;31.85
70338;BME280;57757;53.198;19.646;2023-05-12T06:17:23;100995.58;;;15.50;31.84
70338;BME280;57757;53.198;19.646;2023-05-12T06:19:52;101000.42;;;15.69;31.85
70338;BME280;57757;53.198;19.646;2023-05-12T06:22:20;101001.83;;;15.86;31.69
70338;BME280;57757;53.198;19.646;2023-05-12T06:24:47;101001.05;;;15.99;31.62
70338;BME280;57757;53.198;19.646;2023-05-12T06:27:15;101002.54;;;16.12;31.29
70338;BME280;57757;53.198;19.646;2023-05-12T06:29:43;101001.72;;;16.20;31.38
70338;BME280;57757;53.198;19.646;2023-05-12T06:32:11;101003.25;;;16.32;31.39
70338;BME280;57757;53.198;19.646;2023-05-12T06:34:38;101002.61;;;16.46;31.44
70338;BME280;57757;53.198;19.646;2023-05-12T06:37:06;101003.23;;;16.59;31.13
70338;BME280;57757;53.198;19.646;2023-05-12T06:39:34;101010.67;;;16.72;31.07
70338;BME280;57757;53.198;19.646;2023-05-12T06:42:02;101009.17;;;16.84;31.03
70338;BME280;57757;53.198;19.646;2023-05-12T06:44:30;101008.73;;;16.96;31.13
70338;BME280;57757;53.198;19.646;2023-05-12T06:46:59;101010.92;;;17.08;30.98
70338;BME280;57757;53.198;19.646;2023-05-12T06:49:26;101008.40;;;17.19;31.16
70338;BME280;57757;53.198;19.646;2023-05-12T06:51:54;101012.27;;;17.33;31.11
70338;BME280;57757;53.198;19.646;2023-05-12T06:54:22;101011.13;;;17.49;31.30
70338;BME280;57757;53.198;19.646;2023-05-12T06:56:50;101007.50;;;17.66;31.03
70338;BME280;57757;53.198;19.646;2023-05-12T06:59:17;101007.71;;;17.78;30.67
70338;BME280;57757;53.198;19.646;2023-05-12T07:01:47;101010.64;;;17.88;30.82
70338;BME280;57757;53.198;19.646;2023-05-12T07:04:15;101007.48;;;18.01;30.78
70338;BME280;57757;53.198;19.646;2023-05-12T07:06:44;101005.52;;;18.14;30.83
70338;BME280;57757;53.198;19.646;2023-05-12T07:09:12;101004.74;;;18.25;30.31
70338;BME280;57757;53.198;19.646;2023-05-12T07:11:40;101010.14;;;18.30;30.11
70338;BME280;57757;53.198;19.646;2023-05-12T07:14:08;101008.49;;;18.35;30.16
70338;BME280;57757;53.198;19.646;2023-05-12T07:16:35;101003.95;;;18.43;30.21
70338;BME280;57757;53.198;19.646;2023-05-12T07:19:04;101006.90;;;18.52;30.25
70338;BME280;57757;53.198;19.646;2023-05-12T07:21:35;101007.59;;;18.65;30.35
70338;BME280;57757;53.198;19.646;2023-05-12T07:24:03;101008.06;;;18.75;30.07
70338;BME280;57757;53.198;19.646;2023-05-12T07:26:32;101006.30;;;18.82;29.79
70338;BME280;57757;53.198;19.646;2023-05-12T07:29:00;101007.24;;;18.89;29.98
70338;BME280;57757;53.198;19.646;2023-05-12T07:31:30;101009.75;;;18.95;29.79
70338;BME280;57757;53.198;19.646;2023-05-12T07:33:57;101009.49;;;19.02;29.73
70338;BME280;57757;53.198;19.646;2023-05-12T07:36:25;101012.23;;;19.07;29.69
70338;BME280;57757;53.198;19.646;2023-05-12T07:38:53;101015.24;;;19.14;29.92
70338;BME280;57757;53.198;19.646;2023-05-12T07:41:20;101018.73;;;19.23;29.76
70338;BME280;57757;53.198;19.646;2023-05-12T07:43:50;101013.80;;;19.30;29.83
70338;BME280;57757;53.198;19.646;2023-05-12T07:46:18;101016.52;;;19.36;29.51
70338;BME280;57757;53.198;19.646;2023-05-12T07:48:46;101017.23;;;19.44;29.67
70338;BME280;57757;53.198;19.646;2023-05-12T07:51:14;101014.59;;;19.47;29.49
70338;BME280;57757;53.198;19.646;2023-05-12T07:53:41;101014.27;;;19.55;29.63
70338;BME280;57757;53.198;19.646;2023-05-12T07:56:09;101012.50;;;19.62;29.35
70338;BME280;57757;53.198;19.646;2023-05-12T07:58:37;101012.55;;;19.72;29.44
70338;BME280;57757;53.198;19.646;2023-05-12T08:01:07;101021.30;;;19.81;29.31
70338;BME280;57757;53.198;19.646;2023-05-12T08:03:37;101014.05;;;19.88;29.10
70338;BME280;57757;53.198;19.646;2023-05-12T08:06:05;101017.19;;;19.93;29.13
70338;BME280;57757;53.198;19.646;2023-05-12T08:08:34;101010.93;;;19.98;28.95
70338;BME280;57757;53.198;19.646;2023-05-12T08:11:03;101017.36;;;20.00;28.95
70338;BME280;57757;53.198;19.646;2023-05-12T08:13:31;101018.35;;;20.01;28.93
70338;BME280;57757;53.198;19.646;2023-05-12T08:15:59;101017.05;;;20.07;28.83
70338;BME280;57757;53.198;19.646;2023-05-12T08:18:26;101014.27;;;20.09;28.62
70338;BME280;57757;53.198;19.646;2023-05-12T08:20:55;101015.90;;;20.11;28.62
70338;BME280;57757;53.198;19.646;2023-05-12T08:23:23;101010.66;;;20.21;28.74
70338;BME280;57757;53.198;19.646;2023-05-12T08:25:51;101015.67;;;20.27;28.48
70338;BME280;57757;53.198;19.646;2023-05-12T08:28:19;101011.60;;;20.38;28.77
70338;BME280;57757;53.198;19.646;2023-05-12T08:30:47;101016.73;;;20.48;28.44
70338;BME280;57757;53.198;19.646;2023-05-12T08:33:16;101016.17;;;20.59;28.63
70338;BME280;57757;53.198;19.646;2023-05-12T08:35:44;101017.14;;;20.77;28.45
70338;BME280;57757;53.198;19.646;2023-05-12T08:38:12;101016.63;;;20.90;28.40
70338;BME280;57757;53.198;19.646;2023-05-12T08:43:45;101008.23;;;21.09;28.07
70338;BME280;57757;53.198;19.646;2023-05-12T08:46:16;101006.33;;;20.97;27.89
70338;BME280;57757;53.198;19.646;2023-05-12T08:48:46;101002.74;;;20.98;28.12
70338;BME280;57757;53.198;19.646;2023-05-12T08:51:17;101006.39;;;21.10;28.22
70338;BME280;57757;53.198;19.646;2023-05-12T08:53:46;101013.19;;;21.22;27.95
70338;BME280;57757;53.198;19.646;2023-05-12T08:56:19;101013.35;;;21.31;27.56
70338;BME280;57757;53.198;19.646;2023-05-12T08:58:52;101017.98;;;21.40;27.48
70338;BME280;57757;53.198;19.646;2023-05-12T09:01:21;101010.89;;;21.51;27.54
70338;BME280;57757;53.198;19.646;2023-05-12T09:03:50;101002.73;;;21.60;27.37
70338;BME280;57757;53.198;19.646;2023-05-12T09:06:19;100991.11;;;21.62;26.96
70338;BME280;57757;53.198;19.646;2023-05-12T09:08:47;101009.58;;;21.52;26.94
70338;BME280;57757;53.198;19.646;2023-05-12T09:11:15;101008.67;;;21.52;26.88
70338;BME280;57757;53.198;19.646;2023-05-12T09:13:51;101008.83;;;21.59;26.96
70338;BME280;57757;53.198;19.646;2023-05-12T09:16:23;101002.85;;;21.71;26.93
70338;BME280;57757;53.198;19.646;2023-05-12T09:18:55;100995.75;;;21.83;26.73
70338;BME280;57757;53.198;19.646;2023-05-12T09:21:25;100990.70;;;21.91;26.70
70338;BME280;57757;53.198;19.646;2023-05-12T09:26:21;100994.60;;;22.18;26.69
70338;BME280;57757;53.198;19.646;2023-05-12T09:28:52;100995.23;;;22.29;26.47
70338;BME280;57757;53.198;19.646;2023-05-12T09:31:21;100990.05;;;22.47;26.47
70338;BME280;57757;53.198;19.646;2023-05-12T09:33:50;100991.09;;;22.74;26.44
70338;BME280;57757;53.198;19.646;2023-05-12T09:36:23;100989.13;;;23.03;26.54
70338;BME280;57757;53.198;19.646;2023-05-12T09:39:03;100986.73;;;23.27;26.21
70338;BME280;57757;53.198;19.646;2023-05-12T09:41:38;100988.02;;;23.49;26.07
70338;BME280;57757;53.198;19.646;2023-05-12T09:44:07;100987.98;;;23.63;25.93
70338;BME280;57757;53.198;19.646;2023-05-12T09:46:39;100981.94;;;23.76;25.71
70338;BME280;57757;53.198;19.646;2023-05-12T09:49:07;100983.89;;;23.90;25.73
70338;BME280;57757;53.198;19.646;2023-05-12T09:51:37;100986.41;;;24.18;25.93
70338;BME280;57757;53.198;19.646;2023-05-12T09:54:06;100980.74;;;24.42;25.73
70338;BME280;57757;53.198;19.646;2023-05-12T09:56:36;100992.12;;;24.60;25.55
70338;BME280;57757;53.198;19.646;2023-05-12T09:59:04;100995.21;;;24.84;25.37
70338;BME280;57757;53.198;19.646;2023-05-12T10:01:32;100989.85;;;25.07;25.28
70338;BME280;57757;53.198;19.646;2023-05-12T10:04:06;100979.02;;;25.24;25.11
70338;BME280;57757;53.198;19.646;2023-05-12T10:06:40;100993.00;;;25.26;25.00
70338;BME280;57757;53.198;19.646;2023-05-12T10:09:19;100984.14;;;25.40;25.03
70338;BME280;57757;53.198;19.646;2023-05-12T10:11:50;100987.59;;;25.51;24.68
70338;BME280;57757;53.198;19.646;2023-05-12T10:14:21;100980.87;;;25.53;24.57
70338;BME280;57757;53.198;19.646;2023-05-12T10:16:49;100972.94;;;25.66;24.25
70338;BME280;57757;53.198;19.646;2023-05-12T10:19:19;100971.20;;;25.71;24.18
70338;BME280;57757;53.198;19.646;2023-05-12T10:21:48;100977.44;;;25.73;24.17
70338;BME280;57757;53.198;19.646;2023-05-12T10:24:16;100966.71;;;25.88;24.19
70338;BME280;57757;53.198;19.646;2023-05-12T10:26:48;100967.92;;;25.97;23.95
70338;BME280;57757;53.198;19.646;2023-05-12T10:29:24;100971.46;;;26.12;23.89
70338;BME280;57757;53.198;19.646;2023-05-12T10:31:59;100975.25;;;26.31;23.71
70338;BME280;57757;53.198;19.646;2023-05-12T10:34:35;100976.48;;;26.42;23.56
70338;BME280;57757;53.198;19.646;2023-05-12T10:37:11;100964.95;;;26.57;23.43
70338;BME280;57757;53.198;19.646;2023-05-12T10:40:04;100963.98;;;26.49;23.23
70338;BME280;57757;53.198;19.646;2023-05-12T10:42:41;100971.13;;;26.14;23.15
70338;BME280;57757;53.198;19.646;2023-05-12T10:45:17;100964.48;;;26.29;23.32
70338;BME280;57757;53.198;19.646;2023-05-12T10:47:46;100957.84;;;26.55;23.05
70338;BME280;57757;53.198;19.646;2023-05-12T10:50:25;100957.84;;;26.77;22.99
70338;BME280;57757;53.198;19.646;2023-05-12T10:52:55;100959.14;;;26.99;22.82
70338;BME280;57757;53.198;19.646;2023-05-12T10:55:41;100955.04;;;27.26;22.75
70338;BME280;57757;53.198;19.646;2023-05-12T10:58:10;100960.27;;;27.56;22.58
70338;BME280;57757;53.198;19.646;2023-05-12T11:00:50;100958.87;;;27.77;22.34
70338;BME280;57757;53.198;19.646;2023-05-12T11:03:23;100956.11;;;27.87;22.17
70338;BME280;57757;53.198;19.646;2023-05-12T11:06:00;100960.05;;;28.10;22.25
70338;BME280;57757;53.198;19.646;2023-05-12T11:08:30;100964.16;;;28.33;22.12
70338;BME280;57757;53.198;19.646;2023-05-12T11:11:02;100957.95;;;28.43;21.93
70338;BME280;57757;53.198;19.646;2023-05-12T11:13:30;100954.30;;;28.54;21.91
70338;BME280;57757;53.198;19.646;2023-05-12T11:15:58;100952.80;;;28.63;21.69
70338;BME280;57757;53.198;19.646;2023-05-12T11:18:26;100948.03;;;28.81;21.74
70338;BME280;57757;53.198;19.646;2023-05-12T11:20:53;100944.94;;;29.04;21.61
70338;BME280;57757;53.198;19.646;2023-05-12T11:23:27;100938.39;;;29.19;21.45
70338;BME280;57757;53.198;19.646;2023-05-12T11:25:55;100943.29;;;29.30;21.55
70338;BME280;57757;53.198;19.646;2023-05-12T11:28:23;100951.82;;;29.27;21.51
70338;BME280;57757;53.198;19.646;2023-05-12T11:30:51;100955.71;;;29.25;21.30
70338;BME280;57757;53.198;19.646;2023-05-12T11:33:22;100944.89;;;29.16;21.17
70338;BME280;57757;53.198;19.646;2023-05-12T11:35:49;100947.98;;;29.12;20.98
70338;BME280;57757;53.198;19.646;2023-05-12T11:38:18;100945.73;;;28.88;20.89
70338;BME280;57757;53.198;19.646;2023-05-12T11:40:46;100935.19;;;28.78;20.99
70338;BME280;57757;53.198;19.646;2023-05-12T11:43:19;100939.52;;;28.63;20.83
70338;BME280;57757;53.198;19.646;2023-05-12T11:45:48;100943.55;;;28.79;20.72
70338;BME280;57757;53.198;19.646;2023-05-12T11:48:15;100939.83;;;29.31;20.87
70338;BME280;57757;53.198;19.646;2023-05-12T11:50:45;100936.89;;;29.80;20.40
70338;BME280;57757;53.198;19.646;2023-05-12T11:53:17;100937.08;;;30.15;20.31
70338;BME280;57757;53.198;19.646;2023-05-12T11:56:02;100943.88;;;30.59;20.25
70338;BME280;57757;53.198;19.646;2023-05-12T11:58:29;100943.69;;;31.02;19.93
70338;BME280;57757;53.198;19.646;2023-05-12T12:01:08;100933.21;;;31.26;19.67
70338;BME280;57757;53.198;19.646;2023-05-12T12:03:44;100938.80;;;31.48;19.55
70338;BME280;57757;53.198;19.646;2023-05-12T12:06:15;100943.84;;;31.76;19.32
70338;BME280;57757;53.198;19.646;2023-05-12T12:09:11;100935.01;;;31.87;19.14
70338;BME280;57757;53.198;19.646;2023-05-12T12:11:40;100936.50;;;31.70;19.01
70338;BME280;57757;53.198;19.646;2023-05-12T12:14:12;100940.63;;;31.45;18.90
70338;BME280;57757;53.198;19.646;2023-05-12T12:16:43;100933.77;;;31.51;19.05
70338;BME280;57757;53.198;19.646;2023-05-12T12:19:13;100926.94;;;31.83;18.82
70338;BME280;57757;53.198;19.646;2023-05-12T12:21:41;100928.44;;;32.21;18.89
70338;BME280;57757;53.198;19.646;2023-05-12T12:24:09;100933.36;;;32.73;18.68
70338;BME280;57757;53.198;19.646;2023-05-12T12:26:36;100928.41;;;32.99;18.38
70338;BME280;57757;53.198;19.646;2023-05-12T12:29:06;100922.91;;;33.17;18.28
70338;BME280;57757;53.198;19.646;2023-05-12T12:31:34;100923.23;;;33.47;18.32
70338;BME280;57757;53.198;19.646;2023-05-12T12:34:03;100920.81;;;33.76;17.81
70338;BME280;57757;53.198;19.646;2023-05-12T12:36:31;100929.23;;;33.88;17.82
70338;BME280;57757;53.198;19.646;2023-05-12T12:38:59;100918.43;;;33.96;17.64
70338;BME280;57757;53.198;19.646;2023-05-12T12:41:27;100925.92;;;34.08;17.56
70338;BME280;57757;53.198;19.646;2023-05-12T12:43:55;100921.39;;;34.20;17.34
70338;BME280;57757;53.198;19.646;2023-05-12T12:46:23;100925.46;;;34.44;17.26
70338;BME280;57757;53.198;19.646;2023-05-12T12:48:50;100912.88;;;34.74;17.07
70338;BME280;57757;53.198;19.646;2023-05-12T12:51:18;100914.20;;;35.03;16.97
70338;BME280;57757;53.198;19.646;2023-05-12T12:53:46;100920.97;;;35.18;16.94
70338;BME280;57757;53.198;19.646;2023-05-12T12:56:13;100919.46;;;35.20;16.75
70338;BME280;57757;53.198;19.646;2023-05-12T12:58:41;100919.36;;;35.49;16.63